Time;durP1;ratioP1;P1;durP2;ratioP2;P2;SDS_P1;SDS_P2;PMS_P1;PMS_P2;Temp;Humidity;BMP_temperature;BMP_pressure;BME280_temperature;BME280_humidity;BME280_pressure;Samples;Min_cycle;Max_cycle;Signal;HPM_P1;HPM_P2
2021/09/22 00:00:15;;;;;;;9.60;8.67;;;10.40;99.90;;;;;;5024199;28;20583;-49
2021/09/22 00:02:41;;;;;;;11.90;8.20;;;10.30;99.90;;;;;;5029118;28;20232;-50
2021/09/22 00:05:08;;;;;;;9.57;8.57;;;10.60;99.90;;;;;;5029827;28;20551;-49
2021/09/22 00:07:33;;;;;;;9.02;7.95;;;10.30;99.90;;;;;;5035412;28;20214;-49
2021/09/22 00:09:59;;;;;;;9.67;8.40;;;10.30;99.90;;;;;;5030406;28;20216;-49
2021/09/22 00:12:25;;;;;;;10.90;8.80;;;10.30;99.90;;;;;;5030132;28;20593;-48
2021/09/22 00:14:51;;;;;;;11.20;8.97;;;10.10;99.90;;;;;;5029027;28;20187;-49
2021/09/22 00:17:16;;;;;;;9.50;8.20;;;10.20;99.90;;;;;;5029511;28;20438;-49
2021/09/22 00:19:42;;;;;;;9.63;8.73;;;10.20;99.90;;;;;;5025356;28;20491;-49
2021/09/22 00:22:08;;;;;;;9.60;8.70;;;10.30;99.90;;;;;;5029043;28;20819;-50
2021/09/22 00:24:34;;;;;;;9.17;8.27;;;10.40;99.90;;;;;;5028645;28;20232;-49
2021/09/22 00:27:00;;;;;;;8.88;8.00;;;10.20;99.90;;;;;;5029943;28;20201;-48
2021/09/22 00:29:26;;;;;;;11.07;8.47;;;10.40;99.90;;;;;;5027153;28;20183;-49
2021/09/22 00:31:52;;;;;;;9.50;8.50;;;10.40;99.90;;;;;;5029764;28;20633;-50
2021/09/22 00:34:17;;;;;;;10.57;8.33;;;10.40;99.90;;;;;;5030015;28;20206;-50
2021/09/22 00:36:44;;;;;;;9.30;8.40;;;10.10;99.90;;;;;;5022819;28;20444;-49
2021/09/22 00:39:10;;;;;;;9.70;8.70;;;10.30;99.90;;;;;;5029074;28;20236;-48
2021/09/22 00:41:36;;;;;;;9.10;8.17;;;10.30;99.90;;;;;;5025309;28;20641;-49
2021/09/22 00:44:01;;;;;;;9.57;8.60;;;10.30;99.90;;;;;;5026901;28;20655;-49
2021/09/22 00:46:27;;;;;;;9.50;8.27;;;10.40;99.90;;;;;;5031705;28;20442;-49
2021/09/22 00:48:53;;;;;;;10.17;9.10;;;10.00;99.90;;;;;;5029004;28;20425;-50
2021/09/22 00:51:20;;;;;;;8.80;7.87;;;10.10;99.90;;;;;;5026566;28;20420;-49
2021/09/22 00:53:45;;;;;;;9.68;8.68;;;10.00;99.90;;;;;;5027541;28;20179;-49
2021/09/22 00:56:11;;;;;;;11.10;8.87;;;10.30;99.90;;;;;;5036113;28;20186;-49
2021/09/22 00:58:37;;;;;;;9.63;8.73;;;10.20;99.90;;;;;;5030921;28;20398;-49
2021/09/22 01:01:03;;;;;;;10.27;8.53;;;10.00;99.90;;;;;;5039519;28;20271;-49
2021/09/22 01:03:28;;;;;;;9.55;8.60;;;10.00;99.90;;;;;;5032629;28;20190;-48
2021/09/22 01:05:55;;;;;;;9.57;8.63;;;9.90;99.90;;;;;;5028071;28;20615;-49
2021/09/22 01:08:21;;;;;;;9.77;8.85;;;10.00;99.90;;;;;;5043685;28;20218;-49
2021/09/22 01:10:48;;;;;;;9.57;8.60;;;9.90;99.90;;;;;;5036803;28;20541;-49
2021/09/22 01:13:15;;;;;;;9.93;8.93;;;10.00;99.90;;;;;;5027338;28;20772;-49
2021/09/22 01:15:45;;;;;;;10.45;9.18;;;9.70;99.90;;;;;;5031242;28;20183;-49
2021/09/22 01:18:17;;;;;;;10.10;9.10;;;9.90;99.90;;;;;;5028693;28;20215;-49
2021/09/22 01:20:49;;;;;;;10.27;9.27;;;9.80;99.90;;;;;;5029089;28;20649;-50
2021/09/22 01:23:15;;;;;;;10.27;8.48;;;9.80;99.90;;;;;;5036317;28;20261;-50
2021/09/22 01:25:44;;;;;;;9.93;8.85;;;9.80;99.90;;;;;;5039115;28;20194;-49
2021/09/22 01:28:10;;;;;;;10.68;8.65;;;9.80;99.90;;;;;;5028053;28;20621;-49
2021/09/22 01:30:35;;;;;;;13.60;8.40;;;9.90;99.90;;;;;;5026253;28;20181;-49
2021/09/22 01:33:05;;;;;;;9.50;8.50;;;9.70;99.90;;;;;;5032607;28;20191;-49
2021/09/22 01:35:40;;;;;;;10.32;8.63;;;9.80;99.90;;;;;;5031444;28;20567;-50
2021/09/22 01:38:09;;;;;;;10.82;9.30;;;9.80;99.90;;;;;;5038208;28;20201;-49
2021/09/22 01:40:35;;;;;;;12.27;9.32;;;9.60;99.90;;;;;;5026667;28;20175;-49
2021/09/22 01:43:01;;;;;;;9.90;8.90;;;9.70;99.90;;;;;;5033519;28;20186;-49
2021/09/22 01:45:27;;;;;;;9.30;8.40;;;9.20;99.90;;;;;;5032243;28;20214;-49
2021/09/22 01:47:53;;;;;;;11.50;9.50;;;9.50;99.90;;;;;;5030994;28;20229;-49
2021/09/22 01:50:21;;;;;;;11.53;9.20;;;9.70;99.90;;;;;;5038172;28;20451;-49
2021/09/22 01:52:50;;;;;;;11.85;9.95;;;9.70;99.90;;;;;;5026152;28;20178;-49
2021/09/22 01:55:21;;;;;;;10.30;9.05;;;9.80;99.90;;;;;;5031837;28;20527;-49
2021/09/22 01:57:48;;;;;;;9.98;9.02;;;9.60;99.90;;;;;;5031346;28;20206;-50
2021/09/22 02:00:14;;;;;;;11.95;8.75;;;9.70;99.90;;;;;;5026794;28;20187;-48
2021/09/22 02:02:40;;;;;;;9.05;8.15;;;9.70;99.90;;;;;;5038666;28;20706;-48
2021/09/22 02:05:06;;;;;;;9.43;8.43;;;9.70;99.90;;;;;;5037766;28;20193;-49
2021/09/22 02:07:32;;;;;;;11.38;10.18;;;9.20;99.90;;;;;;5032932;28;20218;-49
2021/09/22 02:09:59;;;;;;;9.73;8.47;;;9.50;99.90;;;;;;5022347;28;20186;-49
2021/09/22 02:12:26;;;;;;;10.60;9.50;;;9.60;99.90;;;;;;5032049;28;20183;-49
2021/09/22 02:14:52;;;;;;;10.35;9.20;;;9.50;99.90;;;;;;5028030;28;20221;-49
2021/09/22 02:17:17;;;;;;;10.13;9.13;;;9.80;99.90;;;;;;5031448;28;20237;-49
2021/09/22 02:19:43;;;;;;;10.70;9.23;;;9.60;99.90;;;;;;5028680;28;20693;-49
2021/09/22 02:22:09;;;;;;;10.67;9.57;;;9.50;99.90;;;;;;5031924;28;20263;-49
2021/09/22 02:24:37;;;;;;;9.87;8.87;;;9.70;99.90;;;;;;5039256;28;20189;-49
2021/09/22 02:27:03;;;;;;;9.70;8.73;;;9.80;99.90;;;;;;5036491;28;20228;-49
2021/09/22 02:29:29;;;;;;;11.98;9.68;;;9.70;99.90;;;;;;5022938;28;20186;-49
2021/09/22 02:31:55;;;;;;;11.40;8.93;;;9.40;99.90;;;;;;5021061;28;20530;-49
2021/09/22 02:34:20;;;;;;;9.63;8.63;;;9.50;99.90;;;;;;5028939;28;20659;-49
2021/09/22 02:36:46;;;;;;;10.53;9.43;;;9.70;99.90;;;;;;5030217;28;20193;-48
2021/09/22 02:39:12;;;;;;;10.00;8.97;;;9.60;99.90;;;;;;5030882;28;20229;-49
2021/09/22 02:41:37;;;;;;;10.07;9.07;;;9.70;99.90;;;;;;5019797;28;21189;-49
2021/09/22 02:44:03;;;;;;;9.70;8.60;;;9.60;99.90;;;;;;5024140;28;20190;-49
2021/09/22 02:46:29;;;;;;;11.00;9.80;;;9.60;99.90;;;;;;5034698;28;20286;-49
2021/09/22 02:48:55;;;;;;;10.27;9.07;;;9.60;99.90;;;;;;5030642;28;20522;-49
2021/09/22 02:51:21;;;;;;;11.63;10.20;;;9.30;99.90;;;;;;5027611;28;20234;-49
2021/09/22 02:53:46;;;;;;;10.90;9.80;;;9.70;99.90;;;;;;5034544;28;20206;-49
2021/09/22 02:56:12;;;;;;;10.50;8.97;;;9.50;99.90;;;;;;5035824;28;20772;-49
2021/09/22 02:58:38;;;;;;;10.17;9.10;;;9.40;99.90;;;;;;5026002;28;20443;-49
2021/09/22 03:01:04;;;;;;;10.83;9.73;;;9.50;99.90;;;;;;5030351;28;20189;-49
2021/09/22 03:03:31;;;;;;;10.95;9.48;;;9.40;99.90;;;;;;5030831;28;20190;-49
2021/09/22 03:05:56;;;;;;;10.85;9.75;;;9.40;99.90;;;;;;5031012;28;20194;-49
2021/09/22 03:08:22;;;;;;;10.03;9.03;;;9.70;99.90;;;;;;5029275;28;20218;-49
2021/09/22 03:10:48;;;;;;;11.10;9.67;;;9.40;99.90;;;;;;5030827;28;20445;-49
2021/09/22 03:13:13;;;;;;;11.23;9.97;;;9.30;99.90;;;;;;5032614;28;20186;-49
2021/09/22 03:15:39;;;;;;;10.30;9.17;;;8.80;99.90;;;;;;5031901;28;20190;-48
2021/09/22 03:18:04;;;;;;;10.87;9.53;;;9.50;99.90;;;;;;5029724;28;20530;-49
2021/09/22 03:20:30;;;;;;;11.20;10.10;;;9.60;99.90;;;;;;5030040;28;20608;-49
2021/09/22 03:22:56;;;;;;;11.60;10.40;;;9.40;99.90;;;;;;5029370;28;20476;-49
2021/09/22 03:25:21;;;;;;;9.97;8.97;;;9.00;99.90;;;;;;5020153;28;20223;-49
2021/09/22 03:27:47;;;;;;;12.83;9.77;;;9.20;99.90;;;;;;5032213;28;20554;-48
2021/09/22 03:30:13;;;;;;;10.73;9.43;;;9.30;99.90;;;;;;5029855;28;20183;-49
2021/09/22 03:32:39;;;;;;;10.93;9.60;;;9.20;99.90;;;;;;5030794;28;20237;-49
2021/09/22 03:35:05;;;;;;;13.23;10.27;;;9.40;99.90;;;;;;5030903;28;20202;-49
2021/09/22 03:37:31;;;;;;;16.50;9.43;;;9.40;99.90;;;;;;5025219;28;20461;-49
2021/09/22 03:39:57;;;;;;;12.07;10.30;;;9.30;99.90;;;;;;5030034;28;20201;-49
2021/09/22 03:42:23;;;;;;;14.45;11.10;;;9.30;99.90;;;;;;5029914;28;20651;-49
2021/09/22 03:44:48;;;;;;;13.53;11.43;;;9.30;99.90;;;;;;5032304;28;20198;-49
2021/09/22 03:47:14;;;;;;;10.17;8.97;;;9.50;99.90;;;;;;5035746;28;20221;-49
2021/09/22 03:49:40;;;;;;;11.30;9.40;;;9.30;99.90;;;;;;5030215;28;20270;-49
2021/09/22 03:52:05;;;;;;;11.30;10.00;;;9.30;99.90;;;;;;5028743;28;20249;-49
2021/09/22 03:54:31;;;;;;;13.43;10.97;;;9.50;99.90;;;;;;5028730;28;20197;-49
2021/09/22 03:56:57;;;;;;;13.60;9.80;;;9.50;99.90;;;;;;5035437;28;20189;-49
2021/09/22 03:59:22;;;;;;;12.50;9.90;;;9.60;99.90;;;;;;5027758;28;20194;-49
2021/09/22 04:01:48;;;;;;;12.63;9.87;;;9.30;99.90;;;;;;5029725;28;20289;-49
2021/09/22 04:04:13;;;;;;;11.33;10.17;;;9.30;99.90;;;;;;5030153;28;20608;-50
2021/09/22 04:06:39;;;;;;;19.80;16.50;;;9.20;99.90;;;;;;5034978;28;20237;-50
2021/09/22 04:09:05;;;;;;;11.63;10.43;;;9.40;99.90;;;;;;5027382;28;20218;-49
2021/09/22 04:11:31;;;;;;;10.70;9.60;;;9.60;99.90;;;;;;5030526;28;20197;-49
2021/09/22 04:13:56;;;;;;;11.33;10.13;;;9.30;99.90;;;;;;5024363;28;20190;-49
2021/09/22 04:16:22;;;;;;;11.03;9.83;;;9.30;99.90;;;;;;5018550;28;20943;-49
2021/09/22 04:18:48;;;;;;;12.47;11.13;;;9.20;99.90;;;;;;5029551;28;20969;-49
2021/09/22 04:21:13;;;;;;;12.63;11.30;;;9.20;99.90;;;;;;5025093;28;20321;-49
2021/09/22 04:23:39;;;;;;;12.73;10.27;;;9.20;99.90;;;;;;5026963;28;20536;-49
2021/09/22 04:26:05;;;;;;;11.50;9.30;;;9.50;99.90;;;;;;5034391;28;20190;-49
2021/09/22 04:28:30;;;;;;;12.57;10.77;;;9.30;99.90;;;;;;5026795;28;20676;-49
2021/09/22 04:30:56;;;;;;;14.03;12.00;;;9.20;99.90;;;;;;5029145;28;20558;-49
2021/09/22 04:33:21;;;;;;;11.83;9.27;;;9.10;99.90;;;;;;5031687;28;20174;-49
2021/09/22 04:35:47;;;;;;;12.87;11.43;;;9.20;99.90;;;;;;5040100;28;20708;-49
2021/09/22 04:38:12;;;;;;;12.07;10.77;;;9.40;99.90;;;;;;5026114;28;20745;-49
2021/09/22 04:40:38;;;;;;;13.57;10.97;;;9.10;99.90;;;;;;5034907;28;20217;-49
2021/09/22 04:43:04;;;;;;;11.43;10.07;;;9.10;99.90;;;;;;5027373;28;20568;-49
2021/09/22 04:45:30;;;;;;;12.93;10.63;;;9.10;99.90;;;;;;5029773;28;20460;-49
2021/09/22 04:47:57;;;;;;;13.40;12.13;;;9.00;99.90;;;;;;5027853;28;20218;-49
2021/09/22 04:50:23;;;;;;;14.57;10.73;;;9.20;99.90;;;;;;5036648;28;20191;-50
2021/09/22 04:52:49;;;;;;;14.02;11.23;;;9.10;99.90;;;;;;5027538;28;20183;-49
2021/09/22 04:55:15;;;;;;;14.30;12.02;;;9.40;99.90;;;;;;5032751;28;20187;-49
2021/09/22 04:57:41;;;;;;;11.52;10.25;;;9.40;99.90;;;;;;5032514;28;20753;-49
2021/09/22 05:00:08;;;;;;;13.37;10.67;;;9.30;99.90;;;;;;5030006;28;20273;-49
2021/09/22 05:02:34;;;;;;;14.35;12.55;;;9.30;99.90;;;;;;5032849;28;20652;-49
2021/09/22 05:05:00;;;;;;;11.37;10.17;;;9.30;99.90;;;;;;5034498;28;20205;-48
2021/09/22 05:07:26;;;;;;;14.10;11.80;;;9.20;99.90;;;;;;5028735;28;20507;-49
2021/09/22 05:09:51;;;;;;;14.23;11.47;;;9.40;99.90;;;;;;5034762;28;20502;-49
2021/09/22 05:12:17;;;;;;;13.57;11.00;;;9.20;99.90;;;;;;5040307;28;20241;-49
2021/09/22 05:14:44;;;;;;;13.70;11.63;;;9.10;99.90;;;;;;5025648;28;20221;-49
2021/09/22 05:17:10;;;;;;;14.15;11.85;;;9.30;99.90;;;;;;5036179;28;20536;-49
2021/09/22 05:19:35;;;;;;;13.43;11.93;;;9.30;99.90;;;;;;5032857;28;20273;-49
2021/09/22 05:22:01;;;;;;;14.20;11.23;;;9.30;99.90;;;;;;5031537;28;20190;-48
2021/09/22 05:24:27;;;;;;;13.60;11.10;;;9.10;99.90;;;;;;5029687;28;20212;-49
2021/09/22 05:26:53;;;;;;;14.88;12.43;;;9.10;99.90;;;;;;5028245;28;20428;-51
2021/09/22 05:29:18;;;;;;;13.67;11.67;;;9.10;99.90;;;;;;5029973;28;20703;-51
2021/09/22 05:31:44;;;;;;;14.60;11.80;;;9.40;99.90;;;;;;5033211;28;20213;-50
2021/09/22 05:34:10;;;;;;;15.30;11.50;;;9.40;99.90;;;;;;5028802;28;20202;-50
2021/09/22 05:36:35;;;;;;;15.80;11.50;;;9.50;99.90;;;;;;5025551;28;20610;-51
2021/09/22 05:39:02;;;;;;;14.33;11.60;;;9.50;99.90;;;;;;5016186;28;20448;-50
2021/09/22 05:41:28;;;;;;;13.60;12.00;;;9.40;99.90;;;;;;5028271;28;20179;-50
2021/09/22 05:43:53;;;;;;;17.60;12.07;;;9.40;99.90;;;;;;5028452;28;20202;-50
2021/09/22 05:46:19;;;;;;;14.73;11.83;;;9.60;99.90;;;;;;5030635;28;20205;-49
2021/09/22 05:48:44;;;;;;;13.10;11.53;;;9.50;99.90;;;;;;5031622;28;20770;-50
2021/09/22 05:51:10;;;;;;;23.53;12.97;;;9.60;99.90;;;;;;5032707;28;20318;-50
2021/09/22 05:53:36;;;;;;;16.57;12.93;;;9.70;99.90;;;;;;5028411;28;20217;-50
2021/09/22 05:56:02;;;;;;;13.20;11.80;;;9.70;99.90;;;;;;5032958;28;20194;-51
2021/09/22 05:58:27;;;;;;;15.95;10.65;;;9.60;99.90;;;;;;5028745;28;20203;-50
2021/09/22 06:00:53;;;;;;;15.10;11.53;;;9.80;99.90;;;;;;5031722;28;20227;-50
2021/09/22 06:03:20;;;;;;;15.43;12.27;;;9.70;99.90;;;;;;5039866;28;20218;-50
2021/09/22 06:05:45;;;;;;;14.75;11.88;;;9.80;99.90;;;;;;5040516;28;20606;-50
2021/09/22 06:08:12;;;;;;;13.50;11.60;;;9.90;99.90;;;;;;5025162;28;20270;-49
2021/09/22 06:10:38;;;;;;;15.55;11.65;;;9.90;99.90;;;;;;5030726;28;20238;-50
2021/09/22 06:13:05;;;;;;;16.80;12.23;;;10.20;99.90;;;;;;5027996;28;20213;-50
2021/09/22 06:15:31;;;;;;;17.70;11.98;;;9.90;99.90;;;;;;5032384;28;20260;-50
2021/09/22 06:17:57;;;;;;;13.38;11.27;;;10.00;99.90;;;;;;5032942;28;20221;-49
2021/09/22 06:20:23;;;;;;;16.35;12.20;;;10.20;99.90;;;;;;5038579;28;20201;-49
2021/09/22 06:22:48;;;;;;;14.90;12.30;;;10.30;99.90;;;;;;5022005;28;20695;-50
2021/09/22 06:25:16;;;;;;;14.93;11.80;;;10.10;99.90;;;;;;5026751;28;20182;-49
2021/09/22 06:27:42;;;;;;;17.10;12.85;;;10.40;99.90;;;;;;5029111;28;20207;-49
2021/09/22 06:30:08;;;;;;;14.60;13.10;;;10.30;99.90;;;;;;5028399;28;20182;-48
2021/09/22 06:32:35;;;;;;;13.88;11.70;;;10.60;99.90;;;;;;5027783;28;20453;-49
2021/09/22 06:35:02;;;;;;;16.40;12.73;;;10.60;99.90;;;;;;5031800;28;20222;-48
2021/09/22 06:37:28;;;;;;;17.15;12.75;;;10.40;99.90;;;;;;5024214;28;20715;-49
2021/09/22 06:39:54;;;;;;;16.02;13.15;;;10.80;99.90;;;;;;5028802;28;20339;-49
2021/09/22 06:42:20;;;;;;;15.20;12.68;;;11.10;99.90;;;;;;5028309;28;20184;-49
2021/09/22 06:44:46;;;;;;;19.17;12.70;;;11.00;99.90;;;;;;5032116;28;20187;-49
2021/09/22 06:47:12;;;;;;;14.27;12.60;;;11.00;99.90;;;;;;5030765;28;20214;-49
2021/09/22 06:49:37;;;;;;;14.20;11.40;;;11.10;99.90;;;;;;5031100;28;20228;-49
2021/09/22 06:52:03;;;;;;;13.87;11.70;;;11.40;99.90;;;;;;5031664;28;20179;-50
2021/09/22 06:54:29;;;;;;;14.03;12.53;;;11.40;99.90;;;;;;5028535;28;20186;-51
2021/09/22 06:56:54;;;;;;;17.80;13.77;;;11.60;99.90;;;;;;5033314;28;20437;-50
2021/09/22 06:59:20;;;;;;;16.80;12.53;;;11.80;99.90;;;;;;5034444;28;20274;-48
2021/09/22 07:01:46;;;;;;;19.60;13.47;;;12.20;99.90;;;;;;5032189;28;20211;-49
2021/09/22 07:04:11;;;;;;;14.30;12.80;;;12.60;99.90;;;;;;5026914;28;20222;-48
2021/09/22 07:06:37;;;;;;;14.53;13.03;;;12.90;99.90;;;;;;5025047;28;20185;-49
2021/09/22 07:09:03;;;;;;;16.70;14.77;;;13.00;99.90;;;;;;5032353;28;20241;-49
2021/09/22 07:11:29;;;;;;;15.55;12.38;;;13.50;99.90;;;;;;5031747;28;20608;-48
2021/09/22 07:13:54;;;;;;;14.67;12.57;;;13.70;99.90;;;;;;5037897;28;20236;-48
2021/09/22 07:16:20;;;;;;;16.73;13.20;;;13.70;99.90;;;;;;5030828;28;20273;-48
2021/09/22 07:18:46;;;;;;;17.30;13.33;;;14.20;99.90;;;;;;5022186;28;20305;-49
2021/09/22 07:21:14;;;;;;;16.88;13.52;;;14.60;99.90;;;;;;5029272;28;20462;-54
2021/09/22 07:23:40;;;;;;;15.30;13.70;;;14.80;99.90;;;;;;5029038;28;20198;-49
2021/09/22 07:26:06;;;;;;;15.75;14.10;;;15.10;99.90;;;;;;5029185;28;20259;-49
2021/09/22 07:28:33;;;;;;;15.05;13.23;;;15.40;99.40;;;;;;5030306;28;20221;-49
2021/09/22 07:30:59;;;;;;;17.27;14.50;;;15.50;99.30;;;;;;5033231;28;20233;-49
2021/09/22 07:33:24;;;;;;;16.33;13.63;;;15.90;98.10;;;;;;5031234;28;20587;-49
2021/09/22 07:35:50;;;;;;;16.80;13.67;;;16.60;97.60;;;;;;5037913;28;20277;-48
2021/09/22 07:38:16;;;;;;;16.43;14.67;;;16.80;95.90;;;;;;5028112;28;20205;-49
2021/09/22 07:40:42;;;;;;;18.30;13.35;;;15.90;97.10;;;;;;5023613;28;20181;-49
2021/09/22 07:43:08;;;;;;;15.07;13.25;;;15.80;97.20;;;;;;5029177;28;20632;-50
2021/09/22 07:45:35;;;;;;;18.50;15.27;;;16.70;97.00;;;;;;5028859;28;20280;-48
2021/09/22 07:48:00;;;;;;;16.48;14.50;;;17.90;95.40;;;;;;5025929;28;20216;-49
2021/09/22 07:50:26;;;;;;;14.10;12.70;;;18.40;93.60;;;;;;5024071;28;20179;-50
2021/09/22 07:52:52;;;;;;;15.53;13.83;;;19.40;92.50;;;;;;5029801;28;20236;-51
2021/09/22 07:55:18;;;;;;;14.27;12.70;;;20.50;90.40;;;;;;5027091;28;20186;-50
2021/09/22 07:57:44;;;;;;;14.37;12.97;;;21.20;86.40;;;;;;5027745;28;20220;-50
2021/09/22 08:00:11;;;;;;;15.10;13.70;;;21.70;81.80;;;;;;5023426;28;20448;-50
2021/09/22 08:02:37;;;;;;;16.73;15.03;;;22.00;81.40;;;;;;5026131;28;20187;-50
2021/09/22 08:05:04;;;;;;;15.10;13.80;;;22.50;79.10;;;;;;5026367;28;20927;-50
2021/09/22 08:07:30;;;;;;;15.40;14.00;;;22.80;77.90;;;;;;5026258;28;20471;-49
2021/09/22 08:09:55;;;;;;;16.63;14.20;;;22.10;76.20;;;;;;5026055;28;20453;-49
2021/09/22 08:12:21;;;;;;;15.03;13.53;;;21.20;79.30;;;;;;5025679;28;20190;-49
2021/09/22 08:14:47;;;;;;;15.23;13.83;;;21.30;79.40;;;;;;5021993;28;20210;-50
2021/09/22 08:17:14;;;;;;;15.50;13.97;;;20.20;82.40;;;;;;5025609;28;20183;-50
2021/09/22 08:19:40;;;;;;;17.02;15.27;;;20.00;83.60;;;;;;5020721;28;20727;-49
2021/09/22 08:22:07;;;;;;;15.27;13.57;;;20.00;83.70;;;;;;5021699;28;20214;-49
2021/09/22 08:24:32;;;;;;;16.92;15.05;;;19.40;83.80;;;;;;5027268;28;20186;-49
2021/09/22 08:26:58;;;;;;;15.60;14.13;;;18.40;89.20;;;;;;5031640;28;20196;-51
2021/09/22 08:29:24;;;;;;;14.87;13.43;;;18.70;89.20;;;;;;5026975;28;20480;-50
2021/09/22 08:31:50;;;;;;;16.13;13.80;;;18.60;90.10;;;;;;5033571;28;20193;-49
2021/09/22 08:34:17;;;;;;;17.75;14.95;;;18.60;89.30;;;;;;5033483;28;20229;-51
2021/09/22 08:36:44;;;;;;;17.55;14.63;;;18.30;89.70;;;;;;5027992;28;20625;-50
2021/09/22 08:39:11;;;;;;;18.80;13.73;;;18.00;90.70;;;;;;5033099;28;20215;-49
2021/09/22 08:41:37;;;;;;;14.65;13.15;;;17.40;91.30;;;;;;5037915;28;20182;-50
2021/09/22 08:44:05;;;;;;;14.93;13.50;;;17.10;92.00;;;;;;5033356;28;20190;-49
2021/09/22 08:46:33;;;;;;;15.55;12.65;;;17.60;91.90;;;;;;5032344;28;20934;-49
2021/09/22 08:49:04;;;;;;;15.00;13.35;;;16.90;92.30;;;;;;5033178;28;20225;-50
2021/09/22 08:51:30;;;;;;;15.38;13.77;;;17.30;92.30;;;;;;5032750;28;20193;-49
2021/09/22 08:53:57;;;;;;;14.25;12.73;;;17.50;92.60;;;;;;5031720;28;20189;-49
2021/09/22 08:56:24;;;;;;;17.25;13.07;;;17.60;91.80;;;;;;5021397;28;20187;-50
2021/09/22 08:58:50;;;;;;;12.70;11.40;;;17.60;92.30;;;;;;5032677;28;20238;-50
2021/09/22 09:01:20;;;;;;;12.23;10.88;;;17.70;90.70;;;;;;5035524;28;20190;-50
2021/09/22 09:03:47;;;;;;;13.90;11.60;;;18.00;89.70;;;;;;5032524;28;20202;-51
2021/09/22 09:06:15;;;;;;;12.90;11.45;;;18.20;90.00;;;;;;5032989;28;20197;-51
2021/09/22 09:08:40;;;;;;;13.05;11.85;;;18.20;89.40;;;;;;5025377;28;20248;-51
2021/09/22 09:11:06;;;;;;;12.80;11.50;;;18.50;87.90;;;;;;5031159;28;20595;-52
2021/09/22 09:13:48;;;;;;;13.83;12.53;;;18.50;87.70;;;;;;5030455;28;20265;-51
2021/09/22 09:16:22;;;;;;;13.27;12.02;;;18.40;87.40;;;;;;5023109;28;20194;-52
2021/09/22 09:18:51;;;;;;;11.85;10.18;;;18.00;89.20;;;;;;5032367;28;20205;-50
2021/09/22 09:21:17;;;;;;;13.00;11.70;;;18.30;89.40;;;;;;5031258;28;20232;-50
2021/09/22 09:23:55;;;;;;;12.43;11.13;;;18.40;89.10;;;;;;5029137;28;20197;-50
2021/09/22 09:26:41;;;;;;;13.40;12.10;;;18.70;88.40;;;;;;5027613;28;20439;-50
2021/09/22 09:29:07;;;;;;;12.93;9.80;;;18.70;87.70;;;;;;5024721;28;20214;-50
2021/09/22 09:31:33;;;;;;;10.73;9.63;;;18.70;86.60;;;;;;5042937;28;20584;-51
2021/09/22 09:34:01;;;;;;;9.65;8.50;;;19.10;85.20;;;;;;5045901;28;20189;-49
2021/09/22 09:36:45;;;;;;;9.38;8.48;;;19.40;84.50;;;;;;5037463;28;20209;-50
2021/09/22 09:39:25;;;;;;;8.70;7.97;;;20.00;84.40;;;;;;5019006;28;20210;-50
2021/09/22 09:41:56;;;;;;;10.02;8.07;;;20.80;78.50;;;;;;5031593;28;20198;-50
2021/09/22 09:44:24;;;;;;;9.03;8.00;;;21.90;75.60;;;;;;5028397;28;20201;-51
2021/09/22 09:46:51;;;;;;;9.43;8.53;;;23.00;71.30;;;;;;5031662;28;20461;-50
2021/09/22 09:49:19;;;;;;;10.27;9.27;;;24.50;68.10;;;;;;5031159;28;20509;-50
2021/09/22 09:51:47;;;;;;;10.23;9.33;;;24.70;66.20;;;;;;5031050;28;20436;-50
2021/09/22 09:54:38;;;;;;;8.90;8.00;;;25.80;61.80;;;;;;5022506;28;20746;-50
2021/09/22 09:57:15;;;;;;;8.13;7.53;;;26.10;59.10;;;;;;5032012;28;20508;-51
2021/09/22 09:59:51;;;;;;;6.33;5.83;;;26.10;58.80;;;;;;5017680;28;20816;-51
2021/09/22 10:02:29;;;;;;;6.97;6.37;;;25.90;57.30;;;;;;5031902;28;20482;-51
2021/09/22 10:04:56;;;;;;;7.67;6.97;;;26.10;56.90;;;;;;5032067;28;20926;-51
2021/09/22 10:07:22;;;;;;;6.57;6.07;;;26.60;57.30;;;;;;5029415;28;20495;-51
2021/09/22 10:09:50;;;;;;;6.70;6.10;;;26.70;55.30;;;;;;5031395;28;21012;-51
2021/09/22 10:12:17;;;;;;;6.67;6.07;;;27.00;55.80;;;;;;5031874;28;20177;-51
2021/09/22 10:14:45;;;;;;;8.10;7.40;;;27.00;54.50;;;;;;5025021;28;20437;-51
2021/09/22 10:17:11;;;;;;;7.23;6.50;;;26.30;55.00;;;;;;5031573;28;20437;-51
2021/09/22 10:19:37;;;;;;;6.67;6.17;;;26.30;56.10;;;;;;5031607;28;20440;-51
2021/09/22 10:22:04;;;;;;;7.00;6.30;;;26.00;55.60;;;;;;5024677;28;20564;-51
2021/09/22 10:24:29;;;;;;;8.23;7.43;;;25.50;56.10;;;;;;5031330;28;20917;-50
2021/09/22 10:26:56;;;;;;;7.30;6.70;;;24.20;59.00;;;;;;5031524;28;20927;-50
2021/09/22 10:29:21;;;;;;;8.60;7.40;;;23.30;59.90;;;;;;5027339;28;20798;-51
2021/09/22 10:31:47;;;;;;;11.57;8.30;;;23.00;62.20;;;;;;5031124;28;20527;-50
2021/09/22 10:34:34;;;;;;;9.30;8.40;;;22.60;63.80;;;;;;5030109;28;20686;-51
2021/09/22 10:37:02;;;;;;;7.30;6.60;;;22.30;64.80;;;;;;5027770;28;20450;-49
2021/09/22 10:39:36;;;;;;;6.82;6.32;;;21.90;66.30;;;;;;5028260;28;20182;-51
2021/09/22 10:42:25;;;;;;;6.38;5.82;;;21.50;67.80;;;;;;5029085;28;20281;-51
2021/09/22 10:44:51;;;;;;;6.88;6.15;;;21.30;68.80;;;;;;5027487;28;20674;-51
2021/09/22 10:47:24;;;;;;;7.40;5.93;;;21.20;68.70;;;;;;5029316;28;20210;-49
2021/09/22 10:49:50;;;;;;;6.10;5.60;;;20.90;68.80;;;;;;5035309;28;20196;-51
2021/09/22 10:52:37;;;;;;;6.50;5.87;;;20.90;70.00;;;;;;5028929;28;20186;-51
2021/09/22 10:55:18;;;;;;;5.32;4.93;;;20.90;69.20;;;;;;5031079;28;20440;-50
2021/09/22 10:57:46;;;;;;;5.30;4.82;;;20.90;69.90;;;;;;5026487;28;20395;-51
2021/09/22 11:00:15;;;;;;;6.93;5.90;;;21.10;69.30;;;;;;5025698;28;20187;-51
2021/09/22 11:02:53;;;;;;;5.90;5.40;;;21.70;69.00;;;;;;5021092;28;20449;-50
2021/09/22 11:05:27;;;;;;;7.33;6.70;;;21.90;66.40;;;;;;5022904;28;20518;-52
2021/09/22 11:07:55;;;;;;;6.27;5.67;;;22.60;65.00;;;;;;5025224;28;20937;-50
2021/09/22 11:10:42;;;;;;;5.60;5.10;;;23.10;63.10;;;;;;5022437;28;20526;-50
2021/09/22 11:13:23;;;;;;;5.60;5.10;;;22.50;63.40;;;;;;5026059;28;20994;-52
2021/09/22 11:15:53;;;;;;;5.80;5.30;;;22.30;64.70;;;;;;5029915;28;20443;-50
2021/09/22 11:18:20;;;;;;;5.40;4.97;;;22.00;64.80;;;;;;5035139;28;20463;-50
2021/09/22 11:20:56;;;;;;;5.20;4.70;;;21.60;64.60;;;;;;5028802;28;20266;-50
2021/09/22 11:23:23;;;;;;;5.75;5.25;;;21.40;67.10;;;;;;5030527;28;20232;-50
2021/09/22 11:25:50;;;;;;;5.35;4.95;;;21.20;67.10;;;;;;5030694;28;20812;-50
2021/09/22 11:28:16;;;;;;;4.78;4.25;;;21.10;67.60;;;;;;5027028;28;20273;-50
2021/09/22 11:30:43;;;;;;;5.47;4.67;;;20.90;67.90;;;;;;5030111;28;20186;-50
2021/09/22 11:33:19;;;;;;;4.30;3.90;;;20.50;69.20;;;;;;5037003;28;20842;-51
2021/09/22 11:35:45;;;;;;;4.18;3.75;;;20.40;69.70;;;;;;5031513;28;20190;-49
2021/09/22 11:38:10;;;;;;;4.20;3.80;;;20.60;69.60;;;;;;5022177;28;20218;-49
2021/09/22 11:40:37;;;;;;;4.70;3.93;;;20.60;70.20;;;;;;5018011;28;20213;-49
2021/09/22 11:43:10;;;;;;;4.65;3.70;;;20.50;69.30;;;;;;5028429;28;20573;-49
2021/09/22 11:45:38;;;;;;;4.20;3.80;;;20.50;69.40;;;;;;5028846;28;20616;-50
2021/09/22 11:48:06;;;;;;;6.25;3.55;;;20.60;69.70;;;;;;5037428;28;20209;-50
2021/09/22 11:50:54;;;;;;;5.20;4.60;;;20.90;68.60;;;;;;5034319;28;20186;-50
2021/09/22 11:53:26;;;;;;;4.45;3.83;;;21.20;68.30;;;;;;5016970;28;20182;-50
2021/09/22 11:55:53;;;;;;;4.60;4.15;;;21.30;67.70;;;;;;5035885;28;20722;-49
2021/09/22 11:58:23;;;;;;;6.55;4.65;;;21.00;68.40;;;;;;5027423;28;20212;-50
2021/09/22 12:00:50;;;;;;;4.05;3.75;;;21.10;69.40;;;;;;5030791;28;20178;-51
2021/09/22 12:03:21;;;;;;;4.82;4.43;;;21.40;68.20;;;;;;5032456;28;20178;-51
2021/09/22 12:05:46;;;;;;;4.75;4.35;;;21.50;68.20;;;;;;5020488;28;20278;-50
2021/09/22 12:08:12;;;;;;;4.67;4.27;;;21.40;69.30;;;;;;5029376;28;20296;-50
2021/09/22 12:10:44;;;;;;;5.10;4.70;;;21.30;69.10;;;;;;5025602;28;20190;-50
2021/09/22 12:13:10;;;;;;;4.30;3.90;;;21.30;69.40;;;;;;5026840;28;20602;-49
2021/09/22 12:15:36;;;;;;;3.63;3.33;;;21.10;69.30;;;;;;5033348;28;20654;-48
2021/09/22 12:18:02;;;;;;;3.50;3.30;;;21.10;69.00;;;;;;5033061;28;20212;-48
2021/09/22 12:20:30;;;;;;;3.58;3.28;;;20.90;69.60;;;;;;5029251;28;20252;-50
2021/09/22 12:22:57;;;;;;;3.53;3.22;;;20.90;70.40;;;;;;5020409;28;20352;-51
2021/09/22 12:25:23;;;;;;;3.40;3.10;;;20.80;71.00;;;;;;5028343;28;20186;-50
2021/09/22 12:27:50;;;;;;;3.20;2.90;;;20.80;70.40;;;;;;5030035;28;20212;-49
2021/09/22 12:30:17;;;;;;;3.95;3.10;;;20.80;70.90;;;;;;5035359;28;20178;-51
2021/09/22 12:32:52;;;;;;;3.80;3.42;;;20.70;70.50;;;;;;5025728;28;20183;-51
2021/09/22 12:35:18;;;;;;;3.45;3.15;;;20.50;71.70;;;;;;5023978;28;20201;-49
2021/09/22 12:37:52;;;;;;;4.53;3.40;;;20.50;71.80;;;;;;5024469;28;20201;-51
2021/09/22 12:40:32;;;;;;;4.10;3.80;;;20.60;72.40;;;;;;5024346;28;20639;-50